createdAt,value
2023-03-18T00:04:37.725Z,10.20
2023-03-18T00:09:40.339Z,10.20
2023-03-18T00:14:42.040Z,10.20
2023-03-18T00:19:43.925Z,10.10
2023-03-18T00:24:45.948Z,10.10
2023-03-18T00:29:47.649Z,10.10
2023-03-18T00:34:50.650Z,10.00
2023-03-18T00:39:52.436Z,10.00
2023-03-18T00:44:54.364Z,10.00
2023-03-18T00:49:56.483Z,10.00
2023-03-18T00:54:58.199Z,10.00
2023-03-18T01:00:00.049Z,9.90
2023-03-18T01:05:02.542Z,9.90
2023-03-18T01:10:04.761Z,9.90
2023-03-18T01:15:12.866Z,9.80
2023-03-18T01:20:17.942Z,9.90
2023-03-18T01:25:20.338Z,9.90
2023-03-18T01:30:23.599Z,9.90
2023-03-18T01:35:25.767Z,9.90
2023-03-18T01:40:28.608Z,9.90
2023-03-18T01:45:30.944Z,9.90
2023-03-18T01:50:37.909Z,9.90
2023-03-18T01:55:41.112Z,9.80
2023-03-18T02:00:51.698Z,9.80
2023-03-18T02:05:54.183Z,9.80
2023-03-18T02:10:56.020Z,9.90
2023-03-18T02:16:05.263Z,9.80
2023-03-18T02:21:20.681Z,9.90
2023-03-18T02:27:16.188Z,9.80
2023-03-18T02:32:20.231Z,9.80
2023-03-18T02:37:21.901Z,9.70
2023-03-18T02:42:31.530Z,9.70
2023-03-18T02:47:33.285Z,9.70
2023-03-18T02:52:35.353Z,9.70
2023-03-18T02:57:37.180Z,9.70
2023-03-18T03:02:39.147Z,9.70
2023-03-18T03:07:41.451Z,9.50
2023-03-18T03:12:43.180Z,9.50
2023-03-18T03:17:45.261Z,9.40
2023-03-18T03:22:47.165Z,9.30
2023-03-18T03:27:49.786Z,9.20
2023-03-18T03:32:52.300Z,9.30
2023-03-18T03:37:54.019Z,9.20
2023-03-18T03:42:56.057Z,9.20
2023-03-18T03:47:57.802Z,9.20
2023-03-18T03:52:59.572Z,9.20
2023-03-18T03:58:01.777Z,9.30
2023-03-18T04:03:04.383Z,9.20
2023-03-18T04:08:06.533Z,9.20
2023-03-18T04:13:08.853Z,9.20
2023-03-18T04:18:10.579Z,9.30
2023-03-18T04:23:12.648Z,9.30
2023-03-18T04:28:14.869Z,9.30
2023-03-18T04:33:17.863Z,9.40
2023-03-18T04:38:20.460Z,9.50
2023-03-18T04:43:22.283Z,9.50
2023-03-18T04:48:24.110Z,9.60
2023-03-18T04:53:26.236Z,9.60
2023-03-18T04:58:28.185Z,9.60
2023-03-18T05:03:30.079Z,9.60
2023-03-18T05:08:31.873Z,9.60
2023-03-18T05:13:33.549Z,9.60
2023-03-18T05:18:35.625Z,9.60
2023-03-18T05:23:38.704Z,9.60
2023-03-18T05:28:40.634Z,9.60
2023-03-18T05:33:42.574Z,9.60
2023-03-18T05:38:44.250Z,9.60
2023-03-18T05:43:46.272Z,9.60
2023-03-18T05:48:47.950Z,9.60
2023-03-18T05:53:50.394Z,9.60
2023-03-18T05:58:52.251Z,9.50
2023-03-18T06:03:55.156Z,9.50
2023-03-18T06:08:56.933Z,9.50
2023-03-18T06:13:59.817Z,9.40
2023-03-18T06:19:02.516Z,9.50
2023-03-18T06:24:04.764Z,9.60
2023-03-18T06:29:07.058Z,9.70
2023-03-18T06:34:08.771Z,9.90
2023-03-18T06:39:10.731Z,10.00
2023-03-18T06:44:13.225Z,10.20
2023-03-18T06:49:15.179Z,10.30
2023-03-18T06:54:16.852Z,10.50
2023-03-18T06:59:21.492Z,10.60
2023-03-18T07:04:23.854Z,10.80
2023-03-18T07:09:28.441Z,10.90
2023-03-18T07:14:30.661Z,11.00
2023-03-18T07:19:33.237Z,11.20
2023-03-18T07:24:35.947Z,11.20
2023-03-18T07:29:38.169Z,11.30
2023-03-18T07:34:40.450Z,11.40
2023-03-18T07:39:44.113Z,11.70
2023-03-18T07:44:45.943Z,12.00
2023-03-18T07:49:47.705Z,12.10
2023-03-18T07:54:49.471Z,12.20
2023-03-18T07:59:51.970Z,12.40
2023-03-18T08:04:54.216Z,12.60
2023-03-18T08:09:56.067Z,12.40
2023-03-18T08:14:58.086Z,12.30
2023-03-18T08:19:59.761Z,12.20
2023-03-18T08:25:01.559Z,12.20
2023-03-18T08:30:04.221Z,12.20
2023-03-18T08:35:06.577Z,12.40
2023-03-18T08:40:09.857Z,12.40
2023-03-18T08:45:12.492Z,12.50
2023-03-18T08:50:15.238Z,12.60
2023-03-18T08:55:17.003Z,12.70
2023-03-18T09:00:20.260Z,12.80
2023-03-18T09:05:22.107Z,13.00
2023-03-18T09:10:24.351Z,13.20
2023-03-18T09:15:27.297Z,13.40
2023-03-18T09:20:29.050Z,13.80
2023-03-18T09:25:31.102Z,14.30
2023-03-18T09:30:33.746Z,14.50
2023-03-18T09:35:36.678Z,14.60
2023-03-18T09:40:51.172Z,14.80
2023-03-18T09:46:17.978Z,15.10
2023-03-18T09:51:47.397Z,15.40
2023-03-18T09:56:52.563Z,15.40
2023-03-18T10:01:56.727Z,15.70
2023-03-18T10:07:02.850Z,15.80
2023-03-18T10:12:21.158Z,15.70
2023-03-18T10:17:35.511Z,16.00
2023-03-18T10:22:50.451Z,16.30
2023-03-18T10:28:01.337Z,16.60
2023-03-18T10:33:24.727Z,17.10
2023-03-18T10:38:36.326Z,16.90
2023-03-18T10:43:38.208Z,16.90
2023-03-18T10:48:59.235Z,17.10
2023-03-18T10:54:24.950Z,17.40
2023-03-18T10:59:28.657Z,17.40
2023-03-18T11:04:38.643Z,17.30
2023-03-18T11:09:42.405Z,17.40
2023-03-18T11:14:48.990Z,17.30
2023-03-18T11:20:00.984Z,17.20
2023-03-18T11:25:11.639Z,16.90
2023-03-18T11:30:34.090Z,16.80
2023-03-18T11:35:48.059Z,16.90
2023-03-18T11:40:49.965Z,17.00
2023-03-18T11:45:59.008Z,17.00
2023-03-18T11:51:09.303Z,17.20
2023-03-18T11:56:42.891Z,17.10
2023-03-18T12:02:26.815Z,17.40
2023-03-18T12:08:06.288Z,17.70
2023-03-18T12:13:11.758Z,18.10
2023-03-18T12:18:51.557Z,18.10
2023-03-18T12:24:11.006Z,18.00
2023-03-18T12:29:31.818Z,18.30
2023-03-18T12:34:45.382Z,18.30
2023-03-18T12:39:59.165Z,17.90
2023-03-18T12:45:15.360Z,17.70
2023-03-18T12:50:41.367Z,17.50
2023-03-18T12:55:48.095Z,17.40
2023-03-18T13:01:19.110Z,17.40
2023-03-18T13:06:29.766Z,17.40
2023-03-18T13:12:01.961Z,17.40
2023-03-18T13:17:05.055Z,17.40
2023-03-18T13:22:41.960Z,17.50
2023-03-18T13:27:49.495Z,17.60
2023-03-18T13:32:58.843Z,17.80
2023-03-18T13:38:18.227Z,18.00
2023-03-18T13:43:24.078Z,18.30
2023-03-18T13:48:33.660Z,18.50
2023-03-18T13:53:41.707Z,18.70
2023-03-18T13:58:47.638Z,18.70
2023-03-18T14:03:49.373Z,18.90
2023-03-18T14:08:52.849Z,19.00
2023-03-18T14:14:01.980Z,19.20
2023-03-18T14:19:17.201Z,19.40
2023-03-18T14:24:18.907Z,19.70
2023-03-18T14:29:34.607Z,19.70
2023-03-18T14:34:56.549Z,19.70
2023-03-18T14:40:18.086Z,19.50
2023-03-18T14:45:25.811Z,19.70
2023-03-18T14:50:29.343Z,20.00
2023-03-18T14:55:34.902Z,20.60
2023-03-18T15:00:37.378Z,20.80
2023-03-18T15:05:41.596Z,21.10
2023-03-18T15:10:45.685Z,21.10
2023-03-18T15:15:47.432Z,21.20
2023-03-18T15:20:53.042Z,20.80
2023-03-18T15:25:55.844Z,20.30
2023-03-18T15:31:00.341Z,20.80
2023-03-18T15:36:12.738Z,21.40
2023-03-18T15:41:17.835Z,21.90
2023-03-18T15:46:30.822Z,22.20
2023-03-18T15:51:43.054Z,22.10
2023-03-18T15:56:49.313Z,21.90
2023-03-18T16:01:52.574Z,21.70
2023-03-18T16:06:54.690Z,21.30
2023-03-18T16:12:06.323Z,21.00
2023-03-18T16:17:12.397Z,20.40
2023-03-18T16:22:15.195Z,20.00
2023-03-18T16:27:39.189Z,19.70
2023-03-18T16:32:40.939Z,19.40
2023-03-18T16:37:44.387Z,19.10
2023-03-18T16:42:49.171Z,18.80
2023-03-18T16:47:52.031Z,18.50
2023-03-18T16:52:54.856Z,18.20
2023-03-18T16:57:59.445Z,17.80
2023-03-18T17:03:02.109Z,17.60
2023-03-18T17:08:04.245Z,17.30
2023-03-18T17:13:07.598Z,17.10
2023-03-18T17:18:21.230Z,16.80
2023-03-18T17:23:26.768Z,16.60
2023-03-18T17:28:40.270Z,16.40
2023-03-18T17:33:42.463Z,16.20
2023-03-18T17:38:44.296Z,16.00
2023-03-18T17:43:46.662Z,15.90
2023-03-18T17:48:49.232Z,15.70
2023-03-18T17:53:58.977Z,15.50
2023-03-18T17:59:00.934Z,15.40
2023-03-18T18:04:03.453Z,15.30
2023-03-18T18:09:05.863Z,15.20
2023-03-18T18:14:25.962Z,15.00
2023-03-18T18:19:28.882Z,14.90
2023-03-18T18:24:33.259Z,14.80
2023-03-18T18:29:35.198Z,14.70
2023-03-18T18:34:36.963Z,14.60
2023-03-18T18:39:38.894Z,14.60
2023-03-18T18:44:40.786Z,14.60
2023-03-18T18:49:43.112Z,14.60
2023-03-18T18:54:45.229Z,14.60
2023-03-18T18:59:47.564Z,14.40
2023-03-18T19:04:49.306Z,14.30
2023-03-18T19:09:51.351Z,14.30
2023-03-18T19:14:53.390Z,14.10
2023-03-18T19:19:55.549Z,14.10
2023-03-18T19:24:57.288Z,14.00
2023-03-18T19:30:01.554Z,13.90
2023-03-18T19:35:03.472Z,13.80
2023-03-18T19:40:26.665Z,13.70
2023-03-18T19:45:29.327Z,13.80
2023-03-18T19:50:31.649Z,13.60
2023-03-18T19:55:33.581Z,13.60
2023-03-18T20:00:35.337Z,13.50
2023-03-18T20:05:37.041Z,13.40
2023-03-18T20:10:41.832Z,13.30
2023-03-18T20:15:44.034Z,13.30
2023-03-18T20:20:48.829Z,13.40
2023-03-18T20:25:52.348Z,13.30
2023-03-18T20:30:56.591Z,13.10
2023-03-18T20:35:58.919Z,13.00
2023-03-18T20:41:01.834Z,13.00
2023-03-18T20:46:03.983Z,12.80
2023-03-18T20:51:33.203Z,12.70
2023-03-18T20:56:35.245Z,12.70
2023-03-18T21:01:37.109Z,12.60
2023-03-18T21:06:39.665Z,12.40
2023-03-18T21:11:42.098Z,12.40
2023-03-18T21:16:44.026Z,12.20
2023-03-18T21:21:45.997Z,12.20
2023-03-18T21:27:01.554Z,12.10
2023-03-18T21:32:06.402Z,12.00
2023-03-18T21:37:15.438Z,12.10
2023-03-18T21:42:27.583Z,12.10
2023-03-18T21:47:29.378Z,12.10
2023-03-18T21:52:39.468Z,12.10
2023-03-18T21:57:41.458Z,11.90
2023-03-18T22:02:43.279Z,11.80
2023-03-18T22:07:46.016Z,11.80
2023-03-18T22:12:47.803Z,11.70
2023-03-18T22:17:50.197Z,11.60
2023-03-18T22:22:52.127Z,11.60
2023-03-18T22:27:53.946Z,11.40
2023-03-18T22:32:57.230Z,11.40
2023-03-18T22:37:59.324Z,11.30
2023-03-18T22:43:01.869Z,11.30
2023-03-18T22:48:04.920Z,11.20
2023-03-18T22:53:11.822Z,11.20
2023-03-18T22:58:22.831Z,11.10
2023-03-18T23:03:35.969Z,11.10
2023-03-18T23:08:37.710Z,11.10
2023-03-18T23:13:41.991Z,11.10
2023-03-18T23:18:44.052Z,11.10
2023-03-18T23:23:45.893Z,11.10
2023-03-18T23:28:48.759Z,11.10
2023-03-18T23:33:50.579Z,11.20
2023-03-18T23:38:52.249Z,11.20
2023-03-18T23:43:54.109Z,11.20
2023-03-18T23:48:56.323Z,11.20
2023-03-18T23:53:57.994Z,11.20
2023-03-18T23:58:59.887Z,11.30
